sensor_id;sensor_type;location;lat;lon;timestamp;P1;durP1;ratioP1;P2;durP2;ratioP2
12631;SDS011;6381;45.748;12.106;2023-09-12T00:01:08;11.57;;;10.13;;
12631;SDS011;6381;45.748;12.106;2023-09-12T00:03:38;13.57;;;9.98;;
12631;SDS011;6381;45.748;12.106;2023-09-12T00:06:07;10.32;;;9.40;;
12631;SDS011;6381;45.748;12.106;2023-09-12T00:08:36;10.60;;;9.68;;
12631;SDS011;6381;45.748;12.106;2023-09-12T00:11:05;10.45;;;9.52;;
12631;SDS011;6381;45.748;12.106;2023-09-12T00:13:38;10.00;;;9.10;;
12631;SDS011;6381;45.748;12.106;2023-09-12T00:16:08;10.23;;;9.32;;
12631;SDS011;6381;45.748;12.106;2023-09-12T00:18:41;12.35;;;9.40;;
12631;SDS011;6381;45.748;12.106;2023-09-12T00:21:10;10.63;;;9.45;;
12631;SDS011;6381;45.748;12.106;2023-09-12T00:23:39;10.00;;;9.10;;
12631;SDS011;6381;45.748;12.106;2023-09-12T00:26:08;10.40;;;9.27;;
12631;SDS011;6381;45.748;12.106;2023-09-12T00:28:36;11.80;;;10.20;;
12631;SDS011;6381;45.748;12.106;2023-09-12T00:31:05;11.98;;;9.90;;
12631;SDS011;6381;45.748;12.106;2023-09-12T00:33:34;10.88;;;9.50;;
12631;SDS011;6381;45.748;12.106;2023-09-12T00:36:05;11.73;;;9.70;;
12631;SDS011;6381;45.748;12.106;2023-09-12T00:38:34;11.65;;;9.80;;
12631;SDS011;6381;45.748;12.106;2023-09-12T00:41:03;11.13;;;9.98;;
12631;SDS011;6381;45.748;12.106;2023-09-12T00:43:32;11.00;;;10.00;;
12631;SDS011;6381;45.748;12.106;2023-09-12T00:46:00;12.00;;;10.20;;
12631;SDS011;6381;45.748;12.106;2023-09-12T00:48:29;12.57;;;10.77;;
12631;SDS011;6381;45.748;12.106;2023-09-12T00:50:58;10.13;;;9.23;;
12631;SDS011;6381;45.748;12.106;2023-09-12T00:53:32;12.40;;;11.20;;
12631;SDS011;6381;45.748;12.106;2023-09-12T00:56:01;11.13;;;10.00;;
12631;SDS011;6381;45.748;12.106;2023-09-12T00:58:29;11.65;;;10.10;;
12631;SDS011;6381;45.748;12.106;2023-09-12T01:00:58;11.35;;;10.25;;
12631;SDS011;6381;45.748;12.106;2023-09-12T01:03:27;10.07;;;9.00;;
12631;SDS011;6381;45.748;12.106;2023-09-12T01:05:56;11.00;;;10.00;;
12631;SDS011;6381;45.748;12.106;2023-09-12T01:08:26;12.38;;;9.25;;
12631;SDS011;6381;45.748;12.106;2023-09-12T01:10:57;10.27;;;9.23;;
12631;SDS011;6381;45.748;12.106;2023-09-12T01:13:27;10.50;;;9.50;;
12631;SDS011;6381;45.748;12.106;2023-09-12T01:15:56;10.90;;;9.20;;
12631;SDS011;6381;45.748;12.106;2023-09-12T01:18:25;11.05;;;9.32;;
12631;SDS011;6381;45.748;12.106;2023-09-12T01:21:00;12.57;;;9.57;;
12631;SDS011;6381;45.748;12.106;2023-09-12T01:23:44;10.75;;;9.23;;
12631;SDS011;6381;45.748;12.106;2023-09-12T01:26:34;10.48;;;9.48;;
12631;SDS011;6381;45.748;12.106;2023-09-12T01:29:13;10.50;;;9.50;;
12631;SDS011;6381;45.748;12.106;2023-09-12T01:31:43;10.70;;;9.60;;
12631;SDS011;6381;45.748;12.106;2023-09-12T01:34:15;13.27;;;10.10;;
12631;SDS011;6381;45.748;12.106;2023-09-12T01:36:45;11.35;;;9.93;;
12631;SDS011;6381;45.748;12.106;2023-09-12T01:39:14;11.10;;;10.10;;
12631;SDS011;6381;45.748;12.106;2023-09-12T01:41:43;12.93;;;10.30;;
12631;SDS011;6381;45.748;12.106;2023-09-12T01:44:17;11.85;;;10.10;;
12631;SDS011;6381;45.748;12.106;2023-09-12T01:46:46;11.45;;;10.32;;
12631;SDS011;6381;45.748;12.106;2023-09-12T01:49:19;10.50;;;9.57;;
12631;SDS011;6381;45.748;12.106;2023-09-12T01:51:52;10.50;;;9.50;;
12631;SDS011;6381;45.748;12.106;2023-09-12T01:54:21;11.48;;;10.32;;
12631;SDS011;6381;45.748;12.106;2023-09-12T01:56:50;11.80;;;10.57;;
12631;SDS011;6381;45.748;12.106;2023-09-12T01:59:21;10.70;;;9.40;;
12631;SDS011;6381;45.748;12.106;2023-09-12T02:01:49;11.38;;;10.32;;
12631;SDS011;6381;45.748;12.106;2023-09-12T02:04:18;10.80;;;9.70;;
12631;SDS011;6381;45.748;12.106;2023-09-12T02:06:47;11.35;;;10.25;;
12631;SDS011;6381;45.748;12.106;2023-09-12T02:09:16;11.55;;;10.32;;
12631;SDS011;6381;45.748;12.106;2023-09-12T02:11:46;10.25;;;9.25;;
12631;SDS011;6381;45.748;12.106;2023-09-12T02:14:15;12.02;;;9.80;;
12631;SDS011;6381;45.748;12.106;2023-09-12T02:16:46;10.20;;;9.30;;
12631;SDS011;6381;45.748;12.106;2023-09-12T02:19:19;11.10;;;10.00;;
12631;SDS011;6381;45.748;12.106;2023-09-12T02:21:48;11.68;;;10.55;;
12631;SDS011;6381;45.748;12.106;2023-09-12T02:24:17;11.38;;;10.25;;
12631;SDS011;6381;45.748;12.106;2023-09-12T02:26:48;12.57;;;10.40;;
12631;SDS011;6381;45.748;12.106;2023-09-12T02:29:17;12.70;;;10.00;;
12631;SDS011;6381;45.748;12.106;2023-09-12T02:31:47;10.82;;;9.75;;
12631;SDS011;6381;45.748;12.106;2023-09-12T02:34:16;11.27;;;10.32;;
12631;SDS011;6381;45.748;12.106;2023-09-12T02:36:45;11.32;;;10.43;;
12631;SDS011;6381;45.748;12.106;2023-09-12T02:39:13;13.00;;;10.55;;
12631;SDS011;6381;45.748;12.106;2023-09-12T02:41:42;11.80;;;10.45;;
12631;SDS011;6381;45.748;12.106;2023-09-12T02:44:11;12.57;;;10.63;;
12631;SDS011;6381;45.748;12.106;2023-09-12T02:46:39;11.63;;;10.50;;
12631;SDS011;6381;45.748;12.106;2023-09-12T02:49:10;11.38;;;10.27;;
12631;SDS011;6381;45.748;12.106;2023-09-12T02:51:38;12.40;;;10.45;;
12631;SDS011;6381;45.748;12.106;2023-09-12T02:54:08;12.05;;;10.45;;
12631;SDS011;6381;45.748;12.106;2023-09-12T02:56:37;12.15;;;10.27;;
12631;SDS011;6381;45.748;12.106;2023-09-12T02:59:05;11.10;;;10.07;;
12631;SDS011;6381;45.748;12.106;2023-09-12T03:01:35;11.73;;;10.63;;
12631;SDS011;6381;45.748;12.106;2023-09-12T03:04:03;11.98;;;10.77;;
12631;SDS011;6381;45.748;12.106;2023-09-12T03:06:34;12.77;;;9.88;;
12631;SDS011;6381;45.748;12.106;2023-09-12T03:09:05;12.18;;;10.48;;
12631;SDS011;6381;45.748;12.106;2023-09-12T03:11:34;13.18;;;10.80;;
12631;SDS011;6381;45.748;12.106;2023-09-12T03:14:03;12.43;;;10.93;;
12631;SDS011;6381;45.748;12.106;2023-09-12T03:16:31;10.82;;;9.82;;
12631;SDS011;6381;45.748;12.106;2023-09-12T03:19:00;11.75;;;9.60;;
12631;SDS011;6381;45.748;12.106;2023-09-12T03:21:30;10.13;;;9.05;;
12631;SDS011;6381;45.748;12.106;2023-09-12T03:24:00;11.38;;;8.88;;
12631;SDS011;6381;45.748;12.106;2023-09-12T03:26:33;10.77;;;9.77;;
12631;SDS011;6381;45.748;12.106;2023-09-12T03:29:02;10.63;;;9.73;;
12631;SDS011;6381;45.748;12.106;2023-09-12T03:31:31;10.30;;;9.40;;
12631;SDS011;6381;45.748;12.106;2023-09-12T03:34:00;10.48;;;9.50;;
12631;SDS011;6381;45.748;12.106;2023-09-12T03:36:29;14.00;;;10.13;;
12631;SDS011;6381;45.748;12.106;2023-09-12T03:38:59;11.90;;;10.40;;
12631;SDS011;6381;45.748;12.106;2023-09-12T03:41:30;11.25;;;10.15;;
12631;SDS011;6381;45.748;12.106;2023-09-12T03:43:58;12.00;;;10.73;;
12631;SDS011;6381;45.748;12.106;2023-09-12T03:46:27;11.65;;;10.45;;
12631;SDS011;6381;45.748;12.106;2023-09-12T03:48:56;11.32;;;10.30;;
12631;SDS011;6381;45.748;12.106;2023-09-12T03:51:25;11.98;;;10.77;;
12631;SDS011;6381;45.748;12.106;2023-09-12T03:53:54;13.82;;;12.25;;
12631;SDS011;6381;45.748;12.106;2023-09-12T03:56:29;13.02;;;11.68;;
12631;SDS011;6381;45.748;12.106;2023-09-12T03:58:58;15.15;;;13.57;;
12631;SDS011;6381;45.748;12.106;2023-09-12T04:01:26;15.48;;;13.98;;
12631;SDS011;6381;45.748;12.106;2023-09-12T04:03:56;17.83;;;14.35;;
12631;SDS011;6381;45.748;12.106;2023-09-12T04:06:29;15.60;;;14.10;;
12631;SDS011;6381;45.748;12.106;2023-09-12T04:08:58;14.65;;;13.30;;
12631;SDS011;6381;45.748;12.106;2023-09-12T04:11:28;14.60;;;13.10;;
12631;SDS011;6381;45.748;12.106;2023-09-12T04:14:13;13.63;;;12.23;;
12631;SDS011;6381;45.748;12.106;2023-09-12T04:16:42;14.60;;;13.13;;
12631;SDS011;6381;45.748;12.106;2023-09-12T04:19:11;13.93;;;12.65;;
12631;SDS011;6381;45.748;12.106;2023-09-12T04:21:40;14.88;;;13.48;;
12631;SDS011;6381;45.748;12.106;2023-09-12T04:24:08;15.40;;;13.95;;
12631;SDS011;6381;45.748;12.106;2023-09-12T04:26:39;15.40;;;13.93;;
12631;SDS011;6381;45.748;12.106;2023-09-12T04:29:08;15.02;;;13.50;;
12631;SDS011;6381;45.748;12.106;2023-09-12T04:31:36;15.63;;;14.02;;
12631;SDS011;6381;45.748;12.106;2023-09-12T04:34:05;15.57;;;14.18;;
12631;SDS011;6381;45.748;12.106;2023-09-12T04:36:34;15.20;;;13.80;;
12631;SDS011;6381;45.748;12.106;2023-09-12T04:39:03;15.77;;;13.48;;
12631;SDS011;6381;45.748;12.106;2023-09-12T04:41:32;14.70;;;13.20;;
12631;SDS011;6381;45.748;12.106;2023-09-12T04:44:03;16.35;;;13.20;;
12631;SDS011;6381;45.748;12.106;2023-09-12T04:46:32;15.80;;;14.38;;
12631;SDS011;6381;45.748;12.106;2023-09-12T04:49:02;17.23;;;15.43;;
12631;SDS011;6381;45.748;12.106;2023-09-12T04:51:31;17.88;;;14.30;;
12631;SDS011;6381;45.748;12.106;2023-09-12T04:53:59;16.20;;;14.63;;
12631;SDS011;6381;45.748;12.106;2023-09-12T04:56:28;17.17;;;15.27;;
12631;SDS011;6381;45.748;12.106;2023-09-12T04:58:57;16.17;;;14.57;;
12631;SDS011;6381;45.748;12.106;2023-09-12T05:01:27;18.17;;;14.25;;
12631;SDS011;6381;45.748;12.106;2023-09-12T05:03:56;18.02;;;16.25;;
12631;SDS011;6381;45.748;12.106;2023-09-12T05:06:25;17.45;;;15.77;;
12631;SDS011;6381;45.748;12.106;2023-09-12T05:08:53;17.25;;;15.63;;
12631;SDS011;6381;45.748;12.106;2023-09-12T05:11:22;19.52;;;16.50;;
12631;SDS011;6381;45.748;12.106;2023-09-12T05:13:52;17.73;;;15.85;;
12631;SDS011;6381;45.748;12.106;2023-09-12T05:16:22;18.90;;;15.32;;
12631;SDS011;6381;45.748;12.106;2023-09-12T05:18:53;17.90;;;15.73;;
12631;SDS011;6381;45.748;12.106;2023-09-12T05:21:22;16.80;;;15.15;;
12631;SDS011;6381;45.748;12.106;2023-09-12T05:23:51;17.30;;;15.57;;
12631;SDS011;6381;45.748;12.106;2023-09-12T05:26:18;17.05;;;15.35;;
12631;SDS011;6381;45.748;12.106;2023-09-12T05:28:47;16.90;;;15.30;;
12631;SDS011;6381;45.748;12.106;2023-09-12T05:31:16;17.35;;;15.40;;
12631;SDS011;6381;45.748;12.106;2023-09-12T05:33:45;17.73;;;15.18;;
12631;SDS011;6381;45.748;12.106;2023-09-12T05:36:17;16.27;;;14.73;;
12631;SDS011;6381;45.748;12.106;2023-09-12T05:38:45;16.55;;;14.88;;
12631;SDS011;6381;45.748;12.106;2023-09-12T05:41:14;17.05;;;15.25;;
12631;SDS011;6381;45.748;12.106;2023-09-12T05:43:43;17.48;;;15.68;;
12631;SDS011;6381;45.748;12.106;2023-09-12T05:46:12;16.10;;;14.60;;
12631;SDS011;6381;45.748;12.106;2023-09-12T05:48:41;17.67;;;15.65;;
12631;SDS011;6381;45.748;12.106;2023-09-12T05:51:10;18.63;;;16.27;;
12631;SDS011;6381;45.748;12.106;2023-09-12T05:53:40;17.25;;;15.65;;
12631;SDS011;6381;45.748;12.106;2023-09-12T05:56:09;17.38;;;15.02;;
12631;SDS011;6381;45.748;12.106;2023-09-12T05:58:38;16.50;;;14.90;;
12631;SDS011;6381;45.748;12.106;2023-09-12T06:01:10;17.17;;;15.35;;
12631;SDS011;6381;45.748;12.106;2023-09-12T06:03:39;17.65;;;14.70;;
12631;SDS011;6381;45.748;12.106;2023-09-12T06:06:08;15.57;;;13.85;;
12631;SDS011;6381;45.748;12.106;2023-09-12T06:08:41;16.60;;;13.48;;
12631;SDS011;6381;45.748;12.106;2023-09-12T06:11:10;15.18;;;13.68;;
12631;SDS011;6381;45.748;12.106;2023-09-12T06:13:39;15.55;;;14.00;;
12631;SDS011;6381;45.748;12.106;2023-09-12T06:16:07;16.88;;;13.57;;
12631;SDS011;6381;45.748;12.106;2023-09-12T06:18:36;15.68;;;14.18;;
12631;SDS011;6381;45.748;12.106;2023-09-12T06:21:05;16.73;;;14.77;;
12631;SDS011;6381;45.748;12.106;2023-09-12T06:23:35;15.65;;;13.90;;
12631;SDS011;6381;45.748;12.106;2023-09-12T06:26:06;16.33;;;14.77;;
12631;SDS011;6381;45.748;12.106;2023-09-12T06:28:34;16.95;;;15.15;;
12631;SDS011;6381;45.748;12.106;2023-09-12T06:31:03;16.25;;;14.65;;
12631;SDS011;6381;45.748;12.106;2023-09-12T06:33:32;16.13;;;14.70;;
12631;SDS011;6381;45.748;12.106;2023-09-12T06:36:00;17.42;;;15.73;;
12631;SDS011;6381;45.748;12.106;2023-09-12T06:38:30;17.75;;;16.10;;
12631;SDS011;6381;45.748;12.106;2023-09-12T06:40:59;19.05;;;16.77;;
12631;SDS011;6381;45.748;12.106;2023-09-12T06:43:30;23.92;;;18.77;;
12631;SDS011;6381;45.748;12.106;2023-09-12T06:45:58;28.10;;;18.35;;
12631;SDS011;6381;45.748;12.106;2023-09-12T06:48:27;24.30;;;16.95;;
12631;SDS011;6381;45.748;12.106;2023-09-12T06:50:56;25.67;;;16.85;;
12631;SDS011;6381;45.748;12.106;2023-09-12T06:53:24;25.90;;;18.02;;
12631;SDS011;6381;45.748;12.106;2023-09-12T06:55:53;20.77;;;14.85;;
12631;SDS011;6381;45.748;12.106;2023-09-12T06:58:23;19.15;;;13.82;;
12631;SDS011;6381;45.748;12.106;2023-09-12T07:00:54;15.82;;;12.05;;
12631;SDS011;6381;45.748;12.106;2023-09-12T07:03:22;13.20;;;10.55;;
12631;SDS011;6381;45.748;12.106;2023-09-12T07:05:51;12.63;;;11.35;;
12631;SDS011;6381;45.748;12.106;2023-09-12T07:08:20;12.10;;;10.93;;
12631;SDS011;6381;45.748;12.106;2023-09-12T07:10:49;15.23;;;11.50;;
12631;SDS011;6381;45.748;12.106;2023-09-12T07:13:21;14.30;;;11.80;;
12631;SDS011;6381;45.748;12.106;2023-09-12T07:15:49;11.85;;;10.57;;
12631;SDS011;6381;45.748;12.106;2023-09-12T07:18:19;11.85;;;10.65;;
12631;SDS011;6381;45.748;12.106;2023-09-12T07:20:56;12.35;;;11.05;;
12631;SDS011;6381;45.748;12.106;2023-09-12T07:23:25;12.57;;;11.15;;
12631;SDS011;6381;45.748;12.106;2023-09-12T07:25:54;13.00;;;11.65;;
12631;SDS011;6381;45.748;12.106;2023-09-12T07:28:24;11.95;;;10.75;;
12631;SDS011;6381;45.748;12.106;2023-09-12T07:30:53;14.13;;;11.02;;
12631;SDS011;6381;45.748;12.106;2023-09-12T07:33:23;12.18;;;11.00;;
12631;SDS011;6381;45.748;12.106;2023-09-12T07:35:52;13.88;;;10.55;;
12631;SDS011;6381;45.748;12.106;2023-09-12T07:38:21;13.63;;;11.43;;
12631;SDS011;6381;45.748;12.106;2023-09-12T07:40:50;17.88;;;11.57;;
12631;SDS011;6381;45.748;12.106;2023-09-12T07:43:19;15.32;;;11.55;;
12631;SDS011;6381;45.748;12.106;2023-09-12T07:45:48;14.20;;;11.52;;
12631;SDS011;6381;45.748;12.106;2023-09-12T07:48:17;18.65;;;12.60;;
12631;SDS011;6381;45.748;12.106;2023-09-12T07:50:48;15.90;;;11.00;;
12631;SDS011;6381;45.748;12.106;2023-09-12T07:53:18;13.05;;;11.43;;
12631;SDS011;6381;45.748;12.106;2023-09-12T07:55:46;18.88;;;10.90;;
12631;SDS011;6381;45.748;12.106;2023-09-12T07:58:16;14.52;;;11.43;;
12631;SDS011;6381;45.748;12.106;2023-09-12T08:00:46;15.35;;;11.55;;
12631;SDS011;6381;45.748;12.106;2023-09-12T08:03:14;13.35;;;10.43;;
12631;SDS011;6381;45.748;12.106;2023-09-12T08:05:43;11.40;;;10.02;;
12631;SDS011;6381;45.748;12.106;2023-09-12T08:08:14;11.60;;;10.48;;
12631;SDS011;6381;45.748;12.106;2023-09-12T08:10:42;17.95;;;11.50;;
12631;SDS011;6381;45.748;12.106;2023-09-12T08:13:12;15.85;;;11.70;;
12631;SDS011;6381;45.748;12.106;2023-09-12T08:15:41;15.55;;;10.88;;
12631;SDS011;6381;45.748;12.106;2023-09-12T08:18:10;17.55;;;12.10;;
12631;SDS011;6381;45.748;12.106;2023-09-12T08:20:39;12.00;;;10.80;;
12631;SDS011;6381;45.748;12.106;2023-09-12T08:23:07;15.68;;;11.05;;
12631;SDS011;6381;45.748;12.106;2023-09-12T08:25:38;13.40;;;11.25;;
12631;SDS011;6381;45.748;12.106;2023-09-12T08:28:07;16.83;;;10.73;;
12631;SDS011;6381;45.748;12.106;2023-09-12T08:30:36;16.08;;;11.45;;
12631;SDS011;6381;45.748;12.106;2023-09-12T08:33:05;18.02;;;9.98;;
12631;SDS011;6381;45.748;12.106;2023-09-12T08:35:34;13.68;;;10.80;;
12631;SDS011;6381;45.748;12.106;2023-09-12T08:38:03;12.93;;;10.38;;
12631;SDS011;6381;45.748;12.106;2023-09-12T08:40:32;13.05;;;10.18;;
12631;SDS011;6381;45.748;12.106;2023-09-12T08:43:03;12.93;;;10.57;;
12631;SDS011;6381;45.748;12.106;2023-09-12T08:45:33;15.70;;;10.20;;
12631;SDS011;6381;45.748;12.106;2023-09-12T08:48:04;12.02;;;10.43;;
12631;SDS011;6381;45.748;12.106;2023-09-12T08:50:35;12.63;;;11.07;;
12631;SDS011;6381;45.748;12.106;2023-09-12T08:53:04;13.35;;;10.73;;
12631;SDS011;6381;45.748;12.106;2023-09-12T08:55:34;12.00;;;10.68;;
12631;SDS011;6381;45.748;12.106;2023-09-12T08:58:05;17.25;;;10.98;;
12631;SDS011;6381;45.748;12.106;2023-09-12T09:00:34;18.27;;;10.63;;
12631;SDS011;6381;45.748;12.106;2023-09-12T09:03:06;17.75;;;11.85;;
12631;SDS011;6381;45.748;12.106;2023-09-12T09:05:35;19.02;;;11.23;;
12631;SDS011;6381;45.748;12.106;2023-09-12T09:08:07;13.63;;;10.98;;
12631;SDS011;6381;45.748;12.106;2023-09-12T09:10:36;16.25;;;10.73;;
12631;SDS011;6381;45.748;12.106;2023-09-12T09:13:18;13.27;;;9.70;;
12631;SDS011;6381;45.748;12.106;2023-09-12T09:15:47;16.83;;;9.77;;
12631;SDS011;6381;45.748;12.106;2023-09-12T09:18:16;12.55;;;10.52;;
12631;SDS011;6381;45.748;12.106;2023-09-12T09:20:45;13.77;;;10.18;;
12631;SDS011;6381;45.748;12.106;2023-09-12T09:23:16;16.23;;;12.20;;
12631;SDS011;6381;45.748;12.106;2023-09-12T09:25:46;21.40;;;11.93;;
12631;SDS011;6381;45.748;12.106;2023-09-12T09:28:22;16.75;;;10.48;;
12631;SDS011;6381;45.748;12.106;2023-09-12T09:30:52;18.15;;;10.57;;
12631;SDS011;6381;45.748;12.106;2023-09-12T09:33:22;16.10;;;11.00;;
12631;SDS011;6381;45.748;12.106;2023-09-12T09:35:52;22.45;;;12.23;;
12631;SDS011;6381;45.748;12.106;2023-09-12T09:38:31;19.63;;;11.55;;
12631;SDS011;6381;45.748;12.106;2023-09-12T09:41:03;16.92;;;13.30;;
12631;SDS011;6381;45.748;12.106;2023-09-12T09:43:34;12.05;;;10.77;;
12631;SDS011;6381;45.748;12.106;2023-09-12T09:46:03;17.90;;;12.18;;
12631;SDS011;6381;45.748;12.106;2023-09-12T09:48:32;14.60;;;11.80;;
12631;SDS011;6381;45.748;12.106;2023-09-12T09:51:02;13.63;;;10.80;;
12631;SDS011;6381;45.748;12.106;2023-09-12T09:53:31;12.45;;;10.45;;
12631;SDS011;6381;45.748;12.106;2023-09-12T09:56:07;14.55;;;10.07;;
12631;SDS011;6381;45.748;12.106;2023-09-12T09:58:43;15.40;;;10.02;;
12631;SDS011;6381;45.748;12.106;2023-09-12T10:01:17;13.70;;;9.40;;
12631;SDS011;6381;45.748;12.106;2023-09-12T10:03:47;10.88;;;9.75;;
12631;SDS011;6381;45.748;12.106;2023-09-12T10:06:18;12.35;;;9.10;;
12631;SDS011;6381;45.748;12.106;2023-09-12T10:08:49;14.15;;;10.38;;
12631;SDS011;6381;45.748;12.106;2023-09-12T10:11:20;11.70;;;10.52;;
12631;SDS011;6381;45.748;12.106;2023-09-12T10:13:54;11.40;;;9.95;;
12631;SDS011;6381;45.748;12.106;2023-09-12T10:16:25;10.30;;;9.32;;
12631;SDS011;6381;45.748;12.106;2023-09-12T10:18:58;11.45;;;10.25;;
12631;SDS011;6381;45.748;12.106;2023-09-12T10:21:33;14.88;;;9.90;;
12631;SDS011;6381;45.748;12.106;2023-09-12T10:24:03;12.98;;;10.38;;
12631;SDS011;6381;45.748;12.106;2023-09-12T10:26:33;14.27;;;10.70;;
12631;SDS011;6381;45.748;12.106;2023-09-12T10:29:04;11.27;;;9.93;;
12631;SDS011;6381;45.748;12.106;2023-09-12T10:31:33;14.75;;;10.00;;
12631;SDS011;6381;45.748;12.106;2023-09-12T10:34:02;10.88;;;9.57;;
12631;SDS011;6381;45.748;12.106;2023-09-12T10:36:36;14.38;;;10.60;;
12631;SDS011;6381;45.748;12.106;2023-09-12T10:39:07;12.35;;;9.18;;
12631;SDS011;6381;45.748;12.106;2023-09-12T10:41:37;11.88;;;9.73;;
12631;SDS011;6381;45.748;12.106;2023-09-12T10:44:09;12.73;;;9.57;;
12631;SDS011;6381;45.748;12.106;2023-09-12T10:46:40;14.77;;;9.98;;
12631;SDS011;6381;45.748;12.106;2023-09-12T10:49:11;12.77;;;9.68;;
12631;SDS011;6381;45.748;12.106;2023-09-12T10:51:40;12.50;;;10.13;;
12631;SDS011;6381;45.748;12.106;2023-09-12T10:54:12;11.57;;;8.77;;
12631;SDS011;6381;45.748;12.106;2023-09-12T10:56:42;13.10;;;10.15;;
12631;SDS011;6381;45.748;12.106;2023-09-12T10:59:18;17.63;;;11.30;;
12631;SDS011;6381;45.748;12.106;2023-09-12T11:01:52;18.70;;;11.38;;
12631;SDS011;6381;45.748;12.106;2023-09-12T11:04:30;13.73;;;9.98;;
12631;SDS011;6381;45.748;12.106;2023-09-12T11:07:01;12.80;;;10.20;;
12631;SDS011;6381;45.748;12.106;2023-09-12T11:12:49;11.77;;;9.70;;
12631;SDS011;6381;45.748;12.106;2023-09-12T11:15:21;10.32;;;9.27;;
12631;SDS011;6381;45.748;12.106;2023-09-12T11:17:59;11.07;;;9.98;;
12631;SDS011;6381;45.748;12.106;2023-09-12T11:20:49;12.68;;;10.63;;
12631;SDS011;6381;45.748;12.106;2023-09-12T11:23:21;10.48;;;8.60;;
12631;SDS011;6381;45.748;12.106;2023-09-12T11:26:02;12.20;;;9.05;;
12631;SDS011;6381;45.748;12.106;2023-09-12T11:28:32;9.80;;;8.73;;
12631;SDS011;6381;45.748;12.106;2023-09-12T11:31:03;12.05;;;10.23;;
12631;SDS011;6381;45.748;12.106;2023-09-12T11:33:33;16.13;;;10.40;;
12631;SDS011;6381;45.748;12.106;2023-09-12T11:36:02;11.77;;;10.32;;
12631;SDS011;6381;45.748;12.106;2023-09-12T11:38:37;11.70;;;9.40;;
12631;SDS011;6381;45.748;12.106;2023-09-12T11:41:06;12.43;;;10.40;;
12631;SDS011;6381;45.748;12.106;2023-09-12T11:43:35;10.48;;;9.38;;
12631;SDS011;6381;45.748;12.106;2023-09-12T11:46:08;11.30;;;10.27;;
12631;SDS011;6381;45.748;12.106;2023-09-12T11:48:37;11.43;;;9.40;;
12631;SDS011;6381;45.748;12.106;2023-09-12T11:51:09;11.48;;;10.15;;
12631;SDS011;6381;45.748;12.106;2023-09-12T11:53:38;12.40;;;9.60;;
12631;SDS011;6381;45.748;12.106;2023-09-12T11:56:07;13.45;;;8.50;;
12631;SDS011;6381;45.748;12.106;2023-09-12T11:58:36;14.00;;;9.15;;
12631;SDS011;6381;45.748;12.106;2023-09-12T12:01:05;10.90;;;9.65;;
12631;SDS011;6381;45.748;12.106;2023-09-12T12:03:40;11.02;;;9.68;;
12631;SDS011;6381;45.748;12.106;2023-09-12T12:06:09;11.10;;;9.10;;
12631;SDS011;6381;45.748;12.106;2023-09-12T12:08:38;9.80;;;8.77;;
12631;SDS011;6381;45.748;12.106;2023-09-12T12:11:07;9.23;;;7.80;;
12631;SDS011;6381;45.748;12.106;2023-09-12T12:13:35;14.93;;;10.38;;
12631;SDS011;6381;45.748;12.106;2023-09-12T12:16:15;12.32;;;9.57;;
12631;SDS011;6381;45.748;12.106;2023-09-12T12:18:44;13.20;;;10.70;;
12631;SDS011;6381;45.748;12.106;2023-09-12T12:21:14;11.82;;;10.43;;
12631;SDS011;6381;45.748;12.106;2023-09-12T12:23:42;12.88;;;11.18;;
12631;SDS011;6381;45.748;12.106;2023-09-12T12:26:11;13.73;;;12.20;;
12631;SDS011;6381;45.748;12.106;2023-09-12T12:28:40;11.57;;;9.75;;
12631;SDS011;6381;45.748;12.106;2023-09-12T12:31:09;10.82;;;9.65;;
12631;SDS011;6381;45.748;12.106;2023-09-12T12:33:40;9.80;;;8.80;;
12631;SDS011;6381;45.748;12.106;2023-09-12T12:36:40;12.55;;;9.68;;
12631;SDS011;6381;45.748;12.106;2023-09-12T12:39:18;11.68;;;9.57;;
12631;SDS011;6381;45.748;12.106;2023-09-12T12:41:48;11.45;;;10.00;;
12631;SDS011;6381;45.748;12.106;2023-09-12T12:44:20;11.65;;;10.55;;
12631;SDS011;6381;45.748;12.106;2023-09-12T12:46:50;13.45;;;12.00;;
12631;SDS011;6381;45.748;12.106;2023-09-12T12:49:21;15.65;;;13.68;;
12631;SDS011;6381;45.748;12.106;2023-09-12T12:51:50;12.07;;;10.90;;
12631;SDS011;6381;45.748;12.106;2023-09-12T12:54:22;12.38;;;10.80;;
12631;SDS011;6381;45.748;12.106;2023-09-12T12:56:51;16.08;;;12.73;;
12631;SDS011;6381;45.748;12.106;2023-09-12T12:59:20;13.32;;;11.98;;
12631;SDS011;6381;45.748;12.106;2023-09-12T13:01:50;14.02;;;12.70;;
12631;SDS011;6381;45.748;12.106;2023-09-12T13:04:19;17.42;;;12.27;;
12631;SDS011;6381;45.748;12.106;2023-09-12T13:06:50;14.50;;;13.05;;
12631;SDS011;6381;45.748;12.106;2023-09-12T13:09:19;13.27;;;11.98;;
12631;SDS011;6381;45.748;12.106;2023-09-12T13:11:48;13.57;;;11.70;;
12631;SDS011;6381;45.748;12.106;2023-09-12T13:14:17;16.88;;;12.75;;
12631;SDS011;6381;45.748;12.106;2023-09-12T13:16:46;16.08;;;12.57;;
12631;SDS011;6381;45.748;12.106;2023-09-12T13:19:15;14.05;;;10.95;;
12631;SDS011;6381;45.748;12.106;2023-09-12T13:21:45;13.88;;;11.63;;
12631;SDS011;6381;45.748;12.106;2023-09-12T13:24:14;13.10;;;11.80;;
12631;SDS011;6381;45.748;12.106;2023-09-12T13:29:11;14.63;;;12.05;;
12631;SDS011;6381;45.748;12.106;2023-09-12T13:31:40;13.10;;;11.68;;
12631;SDS011;6381;45.748;12.106;2023-09-12T13:34:09;17.20;;;13.68;;
12631;SDS011;6381;45.748;12.106;2023-09-12T13:36:37;11.50;;;10.25;;
12631;SDS011;6381;45.748;12.106;2023-09-12T13:39:06;13.23;;;11.90;;
12631;SDS011;6381;45.748;12.106;2023-09-12T13:41:35;18.80;;;16.90;;
12631;SDS011;6381;45.748;12.106;2023-09-12T13:44:04;13.60;;;11.70;;
12631;SDS011;6381;45.748;12.106;2023-09-12T13:46:35;13.05;;;11.65;;
12631;SDS011;6381;45.748;12.106;2023-09-12T13:49:04;13.60;;;12.45;;
12631;SDS011;6381;45.748;12.106;2023-09-12T13:51:35;13.07;;;11.68;;
12631;SDS011;6381;45.748;12.106;2023-09-12T13:54:04;15.05;;;13.15;;
12631;SDS011;6381;45.748;12.106;2023-09-12T13:56:35;17.90;;;15.40;;
12631;SDS011;6381;45.748;12.106;2023-09-12T13:59:04;20.00;;;16.42;;
12631;SDS011;6381;45.748;12.106;2023-09-12T14:01:35;13.73;;;12.40;;
12631;SDS011;6381;45.748;12.106;2023-09-12T14:04:04;13.93;;;11.93;;
12631;SDS011;6381;45.748;12.106;2023-09-12T14:06:33;14.63;;;13.18;;
12631;SDS011;6381;45.748;12.106;2023-09-12T14:09:04;16.10;;;14.40;;
12631;SDS011;6381;45.748;12.106;2023-09-12T14:11:33;21.95;;;15.07;;
12631;SDS011;6381;45.748;12.106;2023-09-12T14:14:03;14.52;;;13.30;;
12631;SDS011;6381;45.748;12.106;2023-09-12T14:16:44;16.73;;;15.20;;
12631;SDS011;6381;45.748;12.106;2023-09-12T14:19:15;21.50;;;17.85;;
12631;SDS011;6381;45.748;12.106;2023-09-12T14:21:44;20.55;;;15.15;;
12631;SDS011;6381;45.748;12.106;2023-09-12T14:24:15;14.50;;;13.00;;
12631;SDS011;6381;45.748;12.106;2023-09-12T14:26:47;13.88;;;12.30;;
12631;SDS011;6381;45.748;12.106;2023-09-12T14:29:18;18.75;;;17.00;;
12631;SDS011;6381;45.748;12.106;2023-09-12T14:31:50;15.73;;;13.70;;
12631;SDS011;6381;45.748;12.106;2023-09-12T14:34:24;17.70;;;15.80;;
12631;SDS011;6381;45.748;12.106;2023-09-12T14:36:54;17.27;;;15.60;;
12631;SDS011;6381;45.748;12.106;2023-09-12T14:39:23;19.33;;;16.75;;
12631;SDS011;6381;45.748;12.106;2023-09-12T14:41:52;19.25;;;16.33;;
12631;SDS011;6381;45.748;12.106;2023-09-12T14:44:21;17.30;;;13.40;;
12631;SDS011;6381;45.748;12.106;2023-09-12T14:46:53;18.33;;;16.25;;
12631;SDS011;6381;45.748;12.106;2023-09-12T14:49:22;19.50;;;16.10;;